sensor_id;sensor_type;location;lat;lon;timestamp;pressure;altitude;pressure_sealevel;temperature;humidity
55418;BME280;41287;47.554;7.844;2022-10-31T00:00:41;98493.25;;;20.52;63.01
55418;BME280;41287;47.554;7.844;2022-10-31T00:03:07;98488.59;;;20.52;63.00
55418;BME280;41287;47.554;7.844;2022-10-31T00:05:32;98479.97;;;20.50;63.18
55418;BME280;41287;47.554;7.844;2022-10-31T00:07:57;98485.88;;;20.52;62.89
55418;BME280;41287;47.554;7.844;2022-10-31T00:10:23;98478.84;;;20.51;63.16
55418;BME280;41287;47.554;7.844;2022-10-31T00:12:48;98477.25;;;20.50;63.05
55418;BME280;41287;47.554;7.844;2022-10-31T00:15:13;98481.56;;;20.51;62.98
55418;BME280;41287;47.554;7.844;2022-10-31T00:17:39;98482.69;;;20.50;62.99
55418;BME280;41287;47.554;7.844;2022-10-31T00:20:04;98479.97;;;20.50;62.91
55418;BME280;41287;47.554;7.844;2022-10-31T00:22:32;98487.00;;;20.51;62.88
55418;BME280;41287;47.554;7.844;2022-10-31T00:24:57;98488.13;;;20.50;63.10
55418;BME280;41287;47.554;7.844;2022-10-31T00:27:23;98488.94;;;20.50;63.04
55418;BME280;41287;47.554;7.844;2022-10-31T00:29:48;98488.13;;;20.50;63.01
55418;BME280;41287;47.554;7.844;2022-10-31T00:32:14;98478.03;;;20.50;62.99
55418;BME280;41287;47.554;7.844;2022-10-31T00:34:39;98487.00;;;20.51;63.12
55418;BME280;41287;47.554;7.844;2022-10-31T00:37:04;98480.75;;;20.50;62.98
55418;BME280;41287;47.554;7.844;2022-10-31T00:39:30;98481.56;;;20.51;63.17
55418;BME280;41287;47.554;7.844;2022-10-31T00:41:55;98481.56;;;20.51;63.12
55418;BME280;41287;47.554;7.844;2022-10-31T00:44:20;98480.75;;;20.50;62.87
55418;BME280;41287;47.554;7.844;2022-10-31T00:46:46;98482.69;;;20.50;62.91
55418;BME280;41287;47.554;7.844;2022-10-31T00:49:11;98487.00;;;20.51;62.94
55418;BME280;41287;47.554;7.844;2022-10-31T00:51:37;98482.69;;;20.50;63.20
55418;BME280;41287;47.554;7.844;2022-10-31T00:54:03;98483.81;;;20.49;62.98
55418;BME280;41287;47.554;7.844;2022-10-31T00:56:28;98468.28;;;20.49;63.10
55418;BME280;41287;47.554;7.844;2022-10-31T00:58:53;98478.38;;;20.49;63.01
55418;BME280;41287;47.554;7.844;2022-10-31T01:01:18;98477.25;;;20.50;63.13
55418;BME280;41287;47.554;7.844;2022-10-31T01:03:46;98476.44;;;20.49;63.00
55418;BME280;41287;47.554;7.844;2022-10-31T01:06:12;98471.78;;;20.50;63.12
55418;BME280;41287;47.554;7.844;2022-10-31T01:08:38;98481.56;;;20.51;62.99
55418;BME280;41287;47.554;7.844;2022-10-31T01:11:16;98478.38;;;20.49;63.01
55418;BME280;41287;47.554;7.844;2022-10-31T01:13:42;98483.47;;;20.50;62.87
55418;BME280;41287;47.554;7.844;2022-10-31T01:16:11;98483.81;;;20.49;63.14
55418;BME280;41287;47.554;7.844;2022-10-31T01:18:36;98476.44;;;20.49;62.95
55418;BME280;41287;47.554;7.844;2022-10-31T01:21:11;98476.78;;;20.48;63.03
55418;BME280;41287;47.554;7.844;2022-10-31T01:23:39;98472.91;;;20.49;63.14
55418;BME280;41287;47.554;7.844;2022-10-31T01:28:34;98469.88;;;20.50;63.13
55418;BME280;41287;47.554;7.844;2022-10-31T01:31:03;98465.56;;;20.49;63.00
55418;BME280;41287;47.554;7.844;2022-10-31T01:33:29;98465.88;;;20.48;63.11
55418;BME280;41287;47.554;7.844;2022-10-31T01:35:54;98470.53;;;20.47;63.07
55418;BME280;41287;47.554;7.844;2022-10-31T01:38:19;98470.53;;;20.47;63.16
55418;BME280;41287;47.554;7.844;2022-10-31T01:40:44;98473.25;;;20.47;63.02
55418;BME280;41287;47.554;7.844;2022-10-31T01:43:13;98462.34;;;20.47;62.93
55418;BME280;41287;47.554;7.844;2022-10-31T01:45:38;98465.88;;;20.48;63.07
55418;BME280;41287;47.554;7.844;2022-10-31T01:48:04;98463.16;;;20.48;63.04
55418;BME280;41287;47.554;7.844;2022-10-31T01:50:33;98461.59;;;20.47;62.88
55418;BME280;41287;47.554;7.844;2022-10-31T01:53:01;98461.59;;;20.47;62.94
55418;BME280;41287;47.554;7.844;2022-10-31T01:55:32;98457.72;;;20.48;63.00
55418;BME280;41287;47.554;7.844;2022-10-31T01:58:04;98451.84;;;20.46;63.06
55418;BME280;41287;47.554;7.844;2022-10-31T02:00:32;98454.19;;;20.47;63.02
55418;BME280;41287;47.554;7.844;2022-10-31T02:02:57;98451.47;;;20.47;63.10
55418;BME280;41287;47.554;7.844;2022-10-31T02:05:26;98444.91;;;20.48;63.04
55418;BME280;41287;47.554;7.844;2022-10-31T02:08:26;98444.00;;;20.44;63.10
55418;BME280;41287;47.554;7.844;2022-10-31T02:10:52;98443.66;;;20.46;63.09
55418;BME280;41287;47.554;7.844;2022-10-31T02:13:18;98441.38;;;20.48;62.97
55418;BME280;41287;47.554;7.844;2022-10-31T02:15:47;98443.31;;;20.47;63.05
55418;BME280;41287;47.554;7.844;2022-10-31T02:18:14;98437.84;;;20.47;62.95
55418;BME280;41287;47.554;7.844;2022-10-31T02:34:26;98435.84;;;20.44;63.00
55418;BME280;41287;47.554;7.844;2022-10-31T02:37:15;98433.09;;;20.44;63.05
55418;BME280;41287;47.554;7.844;2022-10-31T02:42:46;98421.41;;;20.44;63.06
55418;BME280;41287;47.554;7.844;2022-10-31T02:45:48;98419.50;;;20.44;62.99
55418;BME280;41287;47.554;7.844;2022-10-31T02:48:14;98424.63;;;20.46;63.12
55418;BME280;41287;47.554;7.844;2022-10-31T02:50:48;98423.81;;;20.45;63.13
55418;BME280;41287;47.554;7.844;2022-10-31T02:53:15;98420.28;;;20.45;63.04
55418;BME280;41287;47.554;7.844;2022-10-31T02:56:11;98422.56;;;20.43;63.11
55418;BME280;41287;47.554;7.844;2022-10-31T02:58:40;98430.06;;;20.46;62.98
55418;BME280;41287;47.554;7.844;2022-10-31T03:04:04;98419.03;;;20.42;63.27
55418;BME280;41287;47.554;7.844;2022-10-31T03:06:43;98409.75;;;20.43;63.27
55418;BME280;41287;47.554;7.844;2022-10-31T03:09:26;98409.75;;;20.43;62.98
55418;BME280;41287;47.554;7.844;2022-10-31T03:14:38;98411.34;;;20.44;63.06
55418;BME280;41287;47.554;7.844;2022-10-31T03:17:09;98406.69;;;20.45;63.03
55418;BME280;41287;47.554;7.844;2022-10-31T03:19:41;98414.06;;;20.44;63.10
55418;BME280;41287;47.554;7.844;2022-10-31T03:22:16;98406.22;;;20.43;63.09
55418;BME280;41287;47.554;7.844;2022-10-31T03:24:43;98405.88;;;20.44;63.03
55418;BME280;41287;47.554;7.844;2022-10-31T03:27:12;98407.81;;;20.44;63.04
55418;BME280;41287;47.554;7.844;2022-10-31T03:29:42;98403.16;;;20.44;62.97
55418;BME280;41287;47.554;7.844;2022-10-31T03:32:12;98404.28;;;20.43;63.11
55418;BME280;41287;47.554;7.844;2022-10-31T03:34:41;98411.34;;;20.44;63.27
55418;BME280;41287;47.554;7.844;2022-10-31T03:37:11;98410.53;;;20.44;63.08
55418;BME280;41287;47.554;7.844;2022-10-31T03:39:41;98405.88;;;20.44;63.04
55418;BME280;41287;47.554;7.844;2022-10-31T03:42:14;98410.53;;;20.44;63.03
55418;BME280;41287;47.554;7.844;2022-10-31T03:44:44;98403.16;;;20.44;63.03
55418;BME280;41287;47.554;7.844;2022-10-31T03:47:11;98409.41;;;20.45;63.28
55418;BME280;41287;47.554;7.844;2022-10-31T03:49:37;98405.88;;;20.44;62.91
55418;BME280;41287;47.554;7.844;2022-10-31T03:54:43;98410.53;;;20.44;63.05
55418;BME280;41287;47.554;7.844;2022-10-31T03:57:35;98403.50;;;20.43;63.07
55418;BME280;41287;47.554;7.844;2022-10-31T04:00:13;98399.97;;;20.42;63.13
55418;BME280;41287;47.554;7.844;2022-10-31T04:02:41;98401.56;;;20.43;63.05
55418;BME280;41287;47.554;7.844;2022-10-31T04:05:09;98409.41;;;20.45;63.09
55418;BME280;41287;47.554;7.844;2022-10-31T04:07:40;98401.56;;;20.43;62.96
55418;BME280;41287;47.554;7.844;2022-10-31T04:10:10;98391.47;;;20.44;63.00
55418;BME280;41287;47.554;7.844;2022-10-31T04:12:37;98393.41;;;20.43;63.06
55418;BME280;41287;47.554;7.844;2022-10-31T04:15:05;98391.47;;;20.44;63.11
55418;BME280;41287;47.554;7.844;2022-10-31T04:17:36;98379.78;;;20.43;63.12
55418;BME280;41287;47.554;7.844;2022-10-31T04:20:03;98382.53;;;20.43;63.14
55418;BME280;41287;47.554;7.844;2022-10-31T04:22:29;98377.88;;;20.44;63.15
55418;BME280;41287;47.554;7.844;2022-10-31T04:24:54;98374.34;;;20.43;62.94
55418;BME280;41287;47.554;7.844;2022-10-31T04:27:21;98373.22;;;20.44;63.21
55418;BME280;41287;47.554;7.844;2022-10-31T04:29:46;98372.44;;;20.44;63.05
55418;BME280;41287;47.554;7.844;2022-10-31T04:32:12;98372.44;;;20.44;63.25
55418;BME280;41287;47.554;7.844;2022-10-31T04:34:37;98370.84;;;20.43;63.06
55418;BME280;41287;47.554;7.844;2022-10-31T04:37:03;98371.63;;;20.43;63.16
55418;BME280;41287;47.554;7.844;2022-10-31T04:39:28;98376.28;;;20.43;63.04
55418;BME280;41287;47.554;7.844;2022-10-31T04:41:53;98364.59;;;20.42;63.07
55418;BME280;41287;47.554;7.844;2022-10-31T04:44:19;98362.66;;;20.43;63.07
55418;BME280;41287;47.554;7.844;2022-10-31T04:46:46;98359.16;;;20.42;62.99
55418;BME280;41287;47.554;7.844;2022-10-31T04:49:12;98363.47;;;20.43;63.09
55418;BME280;41287;47.554;7.844;2022-10-31T04:51:37;98364.59;;;20.42;63.01
55418;BME280;41287;47.554;7.844;2022-10-31T04:54:02;98359.94;;;20.43;63.13
55418;BME280;41287;47.554;7.844;2022-10-31T04:56:28;98365.38;;;20.43;63.24
55418;BME280;41287;47.554;7.844;2022-10-31T04:58:53;98368.13;;;20.43;62.86
55418;BME280;41287;47.554;7.844;2022-10-31T05:01:18;98370.03;;;20.42;62.94
55418;BME280;41287;47.554;7.844;2022-10-31T05:03:44;98370.03;;;20.42;63.11
55418;BME280;41287;47.554;7.844;2022-10-31T05:06:09;98364.59;;;20.42;63.07
55418;BME280;41287;47.554;7.844;2022-10-31T05:08:34;98368.13;;;20.43;63.12
55418;BME280;41287;47.554;7.844;2022-10-31T05:11:02;98368.91;;;20.43;63.16
55418;BME280;41287;47.554;7.844;2022-10-31T05:13:30;98373.22;;;20.44;63.36
55418;BME280;41287;47.554;7.844;2022-10-31T05:15:56;98377.31;;;20.50;63.60
55418;BME280;41287;47.554;7.844;2022-10-31T05:18:27;98372.75;;;20.55;63.54
55418;BME280;41287;47.554;7.844;2022-10-31T05:20:52;98376.41;;;20.59;63.59
55418;BME280;41287;47.554;7.844;2022-10-31T05:23:19;98378.44;;;20.62;63.86
55418;BME280;41287;47.554;7.844;2022-10-31T05:25:45;98368.81;;;20.64;64.39
55418;BME280;41287;47.554;7.844;2022-10-31T05:28:10;98376.31;;;20.67;65.33
55418;BME280;41287;47.554;7.844;2022-10-31T05:30:36;98362.00;;;20.70;66.59
55418;BME280;41287;47.554;7.844;2022-10-31T05:33:01;98375.28;;;20.72;67.46
55418;BME280;41287;47.554;7.844;2022-10-31T05:35:31;98368.38;;;20.74;68.72
55418;BME280;41287;47.554;7.844;2022-10-31T05:37:57;98372.00;;;20.78;69.25
55418;BME280;41287;47.554;7.844;2022-10-31T05:40:25;98358.84;;;20.80;70.10
55418;BME280;41287;47.554;7.844;2022-10-31T05:42:54;98357.34;;;20.83;70.97
55418;BME280;41287;47.554;7.844;2022-10-31T05:45:21;98352.03;;;20.86;71.91
55418;BME280;41287;47.554;7.844;2022-10-31T05:47:57;98355.97;;;20.89;73.03
55418;BME280;41287;47.554;7.844;2022-10-31T05:50:24;98347.94;;;20.93;72.92
55418;BME280;41287;47.554;7.844;2022-10-31T05:53:01;98345.66;;;20.95;74.16
55418;BME280;41287;47.554;7.844;2022-10-31T05:55:27;98343.03;;;20.98;74.07
55418;BME280;41287;47.554;7.844;2022-10-31T05:57:54;98347.03;;;21.01;74.76
55418;BME280;41287;47.554;7.844;2022-10-31T06:00:22;98352.56;;;21.04;75.18
55418;BME280;41287;47.554;7.844;2022-10-31T06:02:48;98357.69;;;21.06;75.41
55418;BME280;41287;47.554;7.844;2022-10-31T06:05:14;98354.72;;;21.11;76.68
55418;BME280;41287;47.554;7.844;2022-10-31T06:07:40;98353.13;;;21.10;75.48
55418;BME280;41287;47.554;7.844;2022-10-31T06:10:07;98347.25;;;21.08;74.05
55418;BME280;41287;47.554;7.844;2022-10-31T06:12:33;98347.91;;;21.05;73.31
55418;BME280;41287;47.554;7.844;2022-10-31T06:15:04;98351.31;;;21.02;72.03
55418;BME280;41287;47.554;7.844;2022-10-31T06:17:30;98359.38;;;20.98;71.19
55418;BME280;41287;47.554;7.844;2022-10-31T06:19:55;98359.72;;;20.97;70.35
55418;BME280;41287;47.554;7.844;2022-10-31T06:22:22;98351.44;;;20.93;69.65
55418;BME280;41287;47.554;7.844;2022-10-31T06:24:49;98358.03;;;20.92;69.27
55418;BME280;41287;47.554;7.844;2022-10-31T06:27:15;98347.47;;;20.90;68.67
55418;BME280;41287;47.554;7.844;2022-10-31T06:29:40;98351.31;;;20.89;68.49
55418;BME280;41287;47.554;7.844;2022-10-31T06:32:06;98354.38;;;20.88;68.08
55418;BME280;41287;47.554;7.844;2022-10-31T06:34:33;98361.78;;;20.87;67.82
55418;BME280;41287;47.554;7.844;2022-10-31T06:36:58;98357.81;;;20.85;67.51
55418;BME280;41287;47.554;7.844;2022-10-31T06:39:24;98353.50;;;20.84;67.49
55418;BME280;41287;47.554;7.844;2022-10-31T06:41:49;98354.28;;;20.84;67.29
55418;BME280;41287;47.554;7.844;2022-10-31T06:44:14;98358.16;;;20.83;67.13
55418;BME280;41287;47.554;7.844;2022-10-31T06:46:41;98356.13;;;20.80;66.84
55418;BME280;41287;47.554;7.844;2022-10-31T06:49:08;98356.13;;;20.80;67.02
55418;BME280;41287;47.554;7.844;2022-10-31T06:51:34;98362.69;;;20.79;66.73
55418;BME280;41287;47.554;7.844;2022-10-31T06:53:59;98357.25;;;20.79;66.65
55418;BME280;41287;47.554;7.844;2022-10-31T06:56:24;98352.13;;;20.78;66.57
55418;BME280;41287;47.554;7.844;2022-10-31T06:58:51;98347.03;;;20.76;66.50
55418;BME280;41287;47.554;7.844;2022-10-31T07:01:18;98360.63;;;20.76;66.13
55418;BME280;41287;47.554;7.844;2022-10-31T07:03:44;98357.91;;;20.76;65.78
55418;BME280;41287;47.554;7.844;2022-10-31T07:06:09;98370.75;;;20.76;65.69
55418;BME280;41287;47.554;7.844;2022-10-31T07:08:34;98359.84;;;20.76;65.50
55418;BME280;41287;47.554;7.844;2022-10-31T07:11:00;98359.84;;;20.76;65.52
55418;BME280;41287;47.554;7.844;2022-10-31T07:13:25;98368.00;;;20.76;65.47
55418;BME280;41287;47.554;7.844;2022-10-31T07:15:52;98369.16;;;20.75;65.35
55418;BME280;41287;47.554;7.844;2022-10-31T07:18:19;98372.66;;;20.75;65.49
55418;BME280;41287;47.554;7.844;2022-10-31T07:20:44;98383.91;;;20.74;65.29
55418;BME280;41287;47.554;7.844;2022-10-31T07:23:10;98374.59;;;20.75;65.25
55418;BME280;41287;47.554;7.844;2022-10-31T07:25:37;98377.69;;;20.73;65.29
55418;BME280;41287;47.554;7.844;2022-10-31T07:28:04;98390.16;;;20.74;65.18
55418;BME280;41287;47.554;7.844;2022-10-31T07:30:30;98385.84;;;20.73;64.46
55418;BME280;41287;47.554;7.844;2022-10-31T07:32:55;98388.91;;;20.72;63.03
55418;BME280;41287;47.554;7.844;2022-10-31T07:35:24;98385.72;;;20.70;62.26
55418;BME280;41287;47.554;7.844;2022-10-31T07:37:49;98389.56;;;20.69;61.53
55418;BME280;41287;47.554;7.844;2022-10-31T07:40:16;98391.84;;;20.67;61.16
55418;BME280;41287;47.554;7.844;2022-10-31T07:42:44;98393.00;;;20.66;60.78
55418;BME280;41287;47.554;7.844;2022-10-31T07:45:13;98393.31;;;20.64;59.98
55418;BME280;41287;47.554;7.844;2022-10-31T07:47:49;98399.09;;;20.63;59.69
55418;BME280;41287;47.554;7.844;2022-10-31T07:50:22;98400.22;;;20.62;59.40
55418;BME280;41287;47.554;7.844;2022-10-31T07:53:07;98404.09;;;20.61;60.76
55418;BME280;41287;47.554;7.844;2022-10-31T07:55:33;98407.25;;;20.63;61.05
55418;BME280;41287;47.554;7.844;2022-10-31T07:58:02;98407.25;;;20.63;61.49
55418;BME280;41287;47.554;7.844;2022-10-31T08:00:28;98397.50;;;20.62;61.40
55418;BME280;41287;47.554;7.844;2022-10-31T08:03:01;98395.94;;;20.61;60.53
55418;BME280;41287;47.554;7.844;2022-10-31T08:05:27;98397.16;;;20.63;60.72
55418;BME280;41287;47.554;7.844;2022-10-31T08:07:53;98397.16;;;20.63;60.80
55418;BME280;41287;47.554;7.844;2022-10-31T08:10:21;98395.25;;;20.64;60.90
55418;BME280;41287;47.554;7.844;2022-10-31T08:12:46;98397.16;;;20.63;60.93
55418;BME280;41287;47.554;7.844;2022-10-31T08:15:12;98401.81;;;20.63;60.84
55418;BME280;41287;47.554;7.844;2022-10-31T08:17:38;98399.09;;;20.63;61.02
55418;BME280;41287;47.554;7.844;2022-10-31T08:20:05;98393.66;;;20.63;61.10
55418;BME280;41287;47.554;7.844;2022-10-31T08:22:32;98389.34;;;20.62;61.23
55418;BME280;41287;47.554;7.844;2022-10-31T08:24:57;98383.09;;;20.61;61.25
55418;BME280;41287;47.554;7.844;2022-10-31T08:27:23;98384.25;;;20.60;61.22
55418;BME280;41287;47.554;7.844;2022-10-31T08:29:48;98385.81;;;20.61;61.36
55418;BME280;41287;47.554;7.844;2022-10-31T08:32:13;98383.09;;;20.61;61.37
55418;BME280;41287;47.554;7.844;2022-10-31T08:34:39;98382.31;;;20.61;61.46
55418;BME280;41287;47.554;7.844;2022-10-31T08:37:04;98389.69;;;20.60;61.43
55418;BME280;41287;47.554;7.844;2022-10-31T08:39:29;98386.97;;;20.60;61.57
55418;BME280;41287;47.554;7.844;2022-10-31T08:41:55;98381.53;;;20.60;61.44
55418;BME280;41287;47.554;7.844;2022-10-31T08:44:20;98376.88;;;20.61;61.50
55418;BME280;41287;47.554;7.844;2022-10-31T08:46:45;98375.28;;;20.60;61.71
55418;BME280;41287;47.554;7.844;2022-10-31T08:49:10;98383.47;;;20.60;61.65
55418;BME280;41287;47.554;7.844;2022-10-31T08:51:36;98376.88;;;20.61;61.57
55418;BME280;41287;47.554;7.844;2022-10-31T08:54:01;98365.19;;;20.60;61.75
55418;BME280;41287;47.554;7.844;2022-10-31T08:56:26;98362.91;;;20.62;61.79
55418;BME280;41287;47.554;7.844;2022-10-31T08:58:52;98350.41;;;20.61;61.87
55418;BME280;41287;47.554;7.844;2022-10-31T09:01:18;98345.78;;;20.62;61.94
55418;BME280;41287;47.554;7.844;2022-10-31T09:03:46;98341.91;;;20.63;61.95
55418;BME280;41287;47.554;7.844;2022-10-31T09:06:11;98343.84;;;20.62;62.15
55418;BME280;41287;47.554;7.844;2022-10-31T09:08:36;98339.19;;;20.63;62.14
55418;BME280;41287;47.554;7.844;2022-10-31T09:11:03;98336.47;;;20.63;62.24
55418;BME280;41287;47.554;7.844;2022-10-31T09:13:28;98343.50;;;20.64;62.40
55418;BME280;41287;47.554;7.844;2022-10-31T09:15:56;98329.91;;;20.64;62.31
55418;BME280;41287;47.554;7.844;2022-10-31T09:18:23;98326.38;;;20.63;62.42
55418;BME280;41287;47.554;7.844;2022-10-31T09:20:49;98322.53;;;20.64;62.24
55418;BME280;41287;47.554;7.844;2022-10-31T09:23:21;98320.59;;;20.65;62.42
55418;BME280;41287;47.554;7.844;2022-10-31T09:25:50;98320.59;;;20.65;62.52
55418;BME280;41287;47.554;7.844;2022-10-31T09:28:17;98318.69;;;20.65;62.44
55418;BME280;41287;47.554;7.844;2022-10-31T09:30:46;98318.69;;;20.65;62.46
55418;BME280;41287;47.554;7.844;2022-10-31T09:33:12;98312.44;;;20.65;62.46
55418;BME280;41287;47.554;7.844;2022-10-31T09:35:39;98324.13;;;20.65;62.46
55418;BME280;41287;47.554;7.844;2022-10-31T09:38:13;98310.84;;;20.64;62.60
55418;BME280;41287;47.554;7.844;2022-10-31T09:41:07;98302.34;;;20.65;62.41
55418;BME280;41287;47.554;7.844;2022-10-31T09:49:33;98312.09;;;20.66;62.44
55418;BME280;41287;47.554;7.844;2022-10-31T09:52:03;98310.50;;;20.65;62.44
55418;BME280;41287;47.554;7.844;2022-10-31T09:54:49;98317.41;;;20.63;62.70
55418;BME280;41287;47.554;7.844;2022-10-31T09:57:25;98316.28;;;20.64;62.80
55418;BME280;41287;47.554;7.844;2022-10-31T09:59:52;98311.63;;;20.64;62.47
55418;BME280;41287;47.554;7.844;2022-10-31T10:05:03;98304.59;;;20.63;62.14
55418;BME280;41287;47.554;7.844;2022-10-31T10:10:00;98301.53;;;20.65;61.76
55418;BME280;41287;47.554;7.844;2022-10-31T10:23:27;98307.31;;;20.63;62.31
55418;BME280;41287;47.554;7.844;2022-10-31T10:26:18;98308.13;;;20.64;62.31
55418;BME280;41287;47.554;7.844;2022-10-31T10:28:57;98300.41;;;20.66;62.37
55418;BME280;41287;47.554;7.844;2022-10-31T10:31:31;98294.97;;;20.66;62.40
55418;BME280;41287;47.554;7.844;2022-10-31T10:34:07;98291.44;;;20.65;62.55
55418;BME280;41287;47.554;7.844;2022-10-31T10:36:43;98305.84;;;20.66;62.78
55418;BME280;41287;47.554;7.844;2022-10-31T10:39:40;98307.00;;;20.65;62.85
55418;BME280;41287;47.554;7.844;2022-10-31T10:42:11;98307.44;;;20.67;62.78
55418;BME280;41287;47.554;7.844;2022-10-31T10:44:56;98311.72;;;20.68;62.91
55418;BME280;41287;47.554;7.844;2022-10-31T10:47:47;98313.69;;;20.67;63.05
55418;BME280;41287;47.554;7.844;2022-10-31T10:50:27;98310.16;;;20.67;63.02
55418;BME280;41287;47.554;7.844;2022-10-31T10:53:35;98307.44;;;20.67;63.10
55418;BME280;41287;47.554;7.844;2022-10-31T10:58:43;98313.31;;;20.69;63.13
55418;BME280;41287;47.554;7.844;2022-10-31T11:01:12;98303.22;;;20.69;63.18
55418;BME280;41287;47.554;7.844;2022-10-31T11:03:38;98299.38;;;20.70;63.12
55418;BME280;41287;47.554;7.844;2022-10-31T11:06:04;98294.25;;;20.69;63.15
55418;BME280;41287;47.554;7.844;2022-10-31T11:08:33;98232.44;;;20.69;63.10
55418;BME280;41287;47.554;7.844;2022-10-31T11:14:03;98268.97;;;20.68;62.99
55418;BME280;41287;47.554;7.844;2022-10-31T11:16:33;98263.19;;;20.70;62.91
55418;BME280;41287;47.554;7.844;2022-10-31T11:19:26;98263.50;;;20.68;62.89
55418;BME280;41287;47.554;7.844;2022-10-31T11:21:53;98262.06;;;20.71;62.76
55418;BME280;41287;47.554;7.844;2022-10-31T11:26:48;98252.75;;;20.72;62.96
55418;BME280;41287;47.554;7.844;2022-10-31T11:29:22;98249.69;;;20.73;63.03
55418;BME280;41287;47.554;7.844;2022-10-31T11:31:53;98243.13;;;20.74;62.96
55418;BME280;41287;47.554;7.844;2022-10-31T11:34:27;98238.00;;;20.73;62.97
55418;BME280;41287;47.554;7.844;2022-10-31T11:36:56;98223.25;;;20.74;62.94
55418;BME280;41287;47.554;7.844;2022-10-31T11:39:26;98212.00;;;20.75;63.10
55418;BME280;41287;47.554;7.844;2022-10-31T11:41:59;98219.38;;;20.75;63.02
55418;BME280;41287;47.554;7.844;2022-10-31T11:44:26;98213.50;;;20.73;63.00
55418;BME280;41287;47.554;7.844;2022-10-31T11:46:56;98206.22;;;20.77;63.01
55418;BME280;41287;47.554;7.844;2022-10-31T11:52:02;98183.97;;;20.75;63.05
55418;BME280;41287;47.554;7.844;2022-10-31T11:54:32;98177.75;;;20.74;62.99
55418;BME280;41287;47.554;7.844;2022-10-31T11:57:01;98169.13;;;20.72;62.90
55418;BME280;41287;47.554;7.844;2022-10-31T11:59:30;98164.47;;;20.73;62.96
55418;BME280;41287;47.554;7.844;2022-10-31T12:01:58;98157.78;;;20.70;63.04
55418;BME280;41287;47.554;7.844;2022-10-31T12:04:40;98163.56;;;20.69;62.89
55418;BME280;41287;47.554;7.844;2022-10-31T12:07:06;98162.78;;;20.68;62.74
55418;BME280;41287;47.554;7.844;2022-10-31T12:09:34;98162.34;;;20.66;62.89
55418;BME280;41287;47.554;7.844;2022-10-31T12:17:41;98155.66;;;20.64;62.32
55418;BME280;41287;47.554;7.844;2022-10-31T12:28:31;98126.84;;;20.63;62.33
55418;BME280;41287;47.554;7.844;2022-10-31T12:33:47;98107.44;;;20.64;62.14
55418;BME280;41287;47.554;7.844;2022-10-31T12:39:37;98096.09;;;20.62;62.23
55418;BME280;41287;47.554;7.844;2022-10-31T12:50:50;98093.81;;;20.64;62.12
55418;BME280;41287;47.554;7.844;2022-10-31T12:56:21;98098.47;;;20.64;62.36
55418;BME280;41287;47.554;7.844;2022-10-31T12:59:02;98084.53;;;20.65;62.24
55418;BME280;41287;47.554;7.844;2022-10-31T13:01:44;98079.41;;;20.64;62.33
55418;BME280;41287;47.554;7.844;2022-10-31T13:04:30;98079.88;;;20.66;62.36
55418;BME280;41287;47.554;7.844;2022-10-31T13:07:04;98073.63;;;20.65;62.28
55418;BME280;41287;47.554;7.844;2022-10-31T13:09:39;98063.88;;;20.64;62.32
55418;BME280;41287;47.554;7.844;2022-10-31T13:12:18;98061.16;;;20.64;62.43
55418;BME280;41287;47.554;7.844;2022-10-31T13:14:52;98056.50;;;20.65;62.50
55418;BME280;41287;47.554;7.844;2022-10-31T13:17:28;98048.34;;;20.65;62.49
55418;BME280;41287;47.554;7.844;2022-10-31T13:20:08;98033.94;;;20.64;62.67
55418;BME280;41287;47.554;7.844;2022-10-31T13:22:37;98033.59;;;20.66;62.67
55418;BME280;41287;47.554;7.844;2022-10-31T13:28:08;98017.59;;;20.64;63.01
55418;BME280;41287;47.554;7.844;2022-10-31T13:30:38;98034.81;;;20.68;62.99
55418;BME280;41287;47.554;7.844;2022-10-31T13:33:13;98027.81;;;20.67;63.01
55418;BME280;41287;47.554;7.844;2022-10-31T13:41:32;98013.81;;;20.69;63.40
55418;BME280;41287;47.554;7.844;2022-10-31T13:44:22;98004.84;;;20.68;63.56
55418;BME280;41287;47.554;7.844;2022-10-31T13:46:52;98004.50;;;20.70;63.54
55418;BME280;41287;47.554;7.844;2022-10-31T13:54:38;97985.09;;;20.71;63.63
55418;BME280;41287;47.554;7.844;2022-10-31T13:57:21;97988.97;;;20.70;63.79
55418;BME280;41287;47.554;7.844;2022-10-31T13:59:52;97983.19;;;20.72;63.67
55418;BME280;41287;47.554;7.844;2022-10-31T14:02:30;97979.66;;;20.71;63.82
55418;BME280;41287;47.554;7.844;2022-10-31T14:04:59;97964.91;;;20.72;63.83
55418;BME280;41287;47.554;7.844;2022-10-31T14:07:26;97970.81;;;20.74;63.86
55418;BME280;41287;47.554;7.844;2022-10-31T14:09:56;97955.59;;;20.73;63.65
55418;BME280;41287;47.554;7.844;2022-10-31T14:12:38;97964.19;;;20.75;63.82
55418;BME280;41287;47.554;7.844;2022-10-31T14:15:19;97952.88;;;20.73;63.77
55418;BME280;41287;47.554;7.844;2022-10-31T14:22:43;97938.56;;;20.76;63.64
55418;BME280;41287;47.554;7.844;2022-10-31T14:25:29;97951.75;;;20.74;63.95
55418;BME280;41287;47.554;7.844;2022-10-31T14:27:56;97930.72;;;20.75;63.56
55418;BME280;41287;47.554;7.844;2022-10-31T14:30:23;97932.31;;;20.76;63.56
55418;BME280;41287;47.554;7.844;2022-10-31T14:33:02;97938.13;;;20.74;63.45
55418;BME280;41287;47.554;7.844;2022-10-31T14:36:11;97936.53;;;20.73;63.53
55418;BME280;41287;47.554;7.844;2022-10-31T14:39:20;97934.63;;;20.74;63.08
55418;BME280;41287;47.554;7.844;2022-10-31T14:42:12;97921.78;;;20.74;63.17
55418;BME280;41287;47.554;7.844;2022-10-31T14:45:00;97923.34;;;20.75;63.34
55418;BME280;41287;47.554;7.844;2022-10-31T14:50:37;97925.66;;;20.73;63.33
55418;BME280;41287;47.554;7.844;2022-10-31T14:53:12;97934.25;;;20.75;63.33
55418;BME280;41287;47.554;7.844;2022-10-31T14:55:44;97942.41;;;20.75;63.43
55418;BME280;41287;47.554;7.844;2022-10-31T14:58:17;97935.03;;;20.76;63.40
55418;BME280;41287;47.554;7.844;2022-10-31T15:00:44;97941.28;;;20.76;63.32
55418;BME280;41287;47.554;7.844;2022-10-31T15:03:16;97943.22;;;20.76;63.30
55418;BME280;41287;47.554;7.844;2022-10-31T15:05:46;97934.25;;;20.75;63.23
55418;BME280;41287;47.554;7.844;2022-10-31T15:08:48;97936.16;;;20.75;63.37